Time;durP1;ratioP1;P1;durP2;ratioP2;P2;SDS_P1;SDS_P2;PMS_P1;PMS_P2;Temp;Humidity;BMP_temperature;BMP_pressure;BME280_temperature;BME280_humidity;BME280_pressure;Samples;Min_cycle;Max_cycle;Signal;HPM_P1;HPM_P2
2024/03/30 00:02:33;;;;;;;117.17;17.93;;;;;;;;;;5062599;28;20226;-89
2024/03/30 00:05:37;;;;;;;151.77;19.00;;;;;;;;;;5050647;28;20237;-89
2024/03/30 00:08:41;;;;;;;126.33;16.60;;;;;;;;;;5039880;28;20191;-89
2024/03/30 00:11:46;;;;;;;121.53;17.37;;;;;;;;;;5062066;28;20548;-89
2024/03/30 00:14:53;;;;;;;130.83;16.70;;;;;;;;;;5062137;28;20336;-89
2024/03/30 00:18:01;;;;;;;136.40;17.30;;;;;;;;;;5050145;28;20194;-89
2024/03/30 00:21:05;;;;;;;144.30;18.23;;;;;;;;;;5061761;28;20187;-88
2024/03/30 00:24:08;;;;;;;127.67;17.00;;;;;;;;;;5049896;28;20544;-89
2024/03/30 00:27:13;;;;;;;155.87;19.63;;;;;;;;;;5061216;28;20222;-89
2024/03/30 00:30:20;;;;;;;120.63;18.43;;;;;;;;;;5061274;28;20195;-89
2024/03/30 00:33:24;;;;;;;146.10;17.30;;;;;;;;;;5038777;28;20250;-89
2024/03/30 00:36:28;;;;;;;123.53;16.80;;;;;;;;;;5065123;28;20222;-89
2024/03/30 00:39:33;;;;;;;103.50;15.97;;;;;;;;;;5065298;28;20202;-89
2024/03/30 00:42:38;;;;;;;121.50;16.07;;;;;;;;;;5053732;28;20232;-89
2024/03/30 00:45:42;;;;;;;127.40;17.20;;;;;;;;;;5053623;28;20583;-89
2024/03/30 00:48:47;;;;;;;131.47;18.73;;;;;;;;;;5042206;28;20187;-88
2024/03/30 00:51:51;;;;;;;159.90;17.63;;;;;;;;;;5042152;28;20183;-89
2024/03/30 00:54:55;;;;;;;135.23;17.23;;;;;;;;;;5053677;28;20190;-89
2024/03/30 00:57:59;;;;;;;145.50;17.13;;;;;;;;;;5065166;28;20552;-89
2024/03/30 01:01:04;;;;;;;128.53;17.37;;;;;;;;;;5053323;28;20178;-89
2024/03/30 01:04:08;;;;;;;137.20;18.30;;;;;;;;;;5077437;28;20210;-89
2024/03/30 01:07:54;;;;;;;148.57;18.40;;;;;;;;;;5077270;28;20186;-89
2024/03/30 01:10:59;;;;;;;118.10;17.53;;;;;;;;;;5053038;28;20179;-88
2024/03/30 01:14:05;;;;;;;119.97;17.80;;;;;;;;;;5064408;28;20191;-89
2024/03/30 01:17:10;;;;;;;127.07;17.40;;;;;;;;;;5064455;28;20230;-88
2024/03/30 01:20:14;;;;;;;121.80;17.00;;;;;;;;;;5041300;28;20651;-89
2024/03/30 01:23:20;;;;;;;123.37;17.20;;;;;;;;;;5064111;28;20210;-89
2024/03/30 01:26:29;;;;;;;122.60;16.40;;;;;;;;;;5041526;28;20227;-89
2024/03/30 01:30:15;;;;;;;135.83;16.23;;;;;;;;;;5069806;28;20198;-89
2024/03/30 01:33:35;;;;;;;121.73;15.43;;;;;;;;;;5054546;28;20207;-89
2024/03/30 01:36:44;;;;;;;100.20;15.37;;;;;;;;;;5063733;28;20243;-89
2024/03/30 01:39:52;;;;;;;113.03;17.23;;;;;;;;;;5041406;28;20203;-89
2024/03/30 01:43:04;;;;;;;119.20;16.50;;;;;;;;;;5052602;28;20214;-89
2024/03/30 01:46:08;;;;;;;115.60;15.77;;;;;;;;;;5051839;28;20734;-89
2024/03/30 01:49:21;;;;;;;100.77;14.83;;;;;;;;;;5054695;28;20195;-89
2024/03/30 01:52:30;;;;;;;103.80;14.70;;;;;;;;;;5063632;28;20195;-89
2024/03/30 01:55:36;;;;;;;116.00;15.67;;;;;;;;;;5052559;28;20222;-89
2024/03/30 01:58:41;;;;;;;92.03;13.87;;;;;;;;;;5063882;28;20190;-88
2024/03/30 02:01:47;;;;;;;111.83;15.87;;;;;;;;;;5063845;28;20190;-89
2024/03/30 02:04:52;;;;;;;108.60;14.73;;;;;;;;;;5063858;28;20183;-89
2024/03/30 02:12:17;;;;;;;99.93;12.87;;;;;;;;;;5058125;28;20274;-89
2024/03/30 02:15:23;;;;;;;94.50;12.73;;;;;;;;;;5052943;28;20206;-89
2024/03/30 02:18:48;;;;;;;125.60;14.63;;;;;;;;;;5063179;28;20194;-89
2024/03/30 02:22:37;;;;;;;92.77;14.73;;;;;;;;;;5065422;28;20183;-87
2024/03/30 02:26:05;;;;;;;100.97;13.20;;;;;;;;;;5054838;28;20222;-87
2024/03/30 02:29:14;;;;;;;94.83;13.87;;;;;;;;;;5052319;28;20186;-87
2024/03/30 02:32:18;;;;;;;95.27;13.67;;;;;;;;;;5063001;28;20195;-87
2024/03/30 02:35:22;;;;;;;102.87;13.13;;;;;;;;;;5051714;28;20182;-87
2024/03/30 02:38:27;;;;;;;83.53;12.63;;;;;;;;;;5063236;28;20191;-88
2024/03/30 02:41:30;;;;;;;85.30;12.67;;;;;;;;;;5051576;28;20190;-88
2024/03/30 02:44:35;;;;;;;93.03;12.53;;;;;;;;;;5051751;28;20219;-88
2024/03/30 02:47:39;;;;;;;94.30;13.20;;;;;;;;;;5040516;28;20663;-87
2024/03/30 02:50:43;;;;;;;79.77;13.67;;;;;;;;;;5051302;28;20639;-87
2024/03/30 02:53:50;;;;;;;87.50;11.60;;;;;;;;;;5040289;28;20186;-87
2024/03/30 02:56:54;;;;;;;97.37;13.33;;;;;;;;;;5051059;28;20225;-87
2024/03/30 02:59:58;;;;;;;91.20;11.77;;;;;;;;;;5062949;28;20186;-87
2024/03/30 03:03:03;;;;;;;91.20;12.53;;;;;;;;;;5051160;28;20234;-87
2024/03/30 03:06:08;;;;;;;86.17;13.03;;;;;;;;;;5051302;28;20238;-87
2024/03/30 03:09:12;;;;;;;85.90;12.73;;;;;;;;;;5051507;28;20202;-87
2024/03/30 03:12:17;;;;;;;90.23;12.93;;;;;;;;;;5050996;28;20203;-87
2024/03/30 03:15:21;;;;;;;78.40;11.37;;;;;;;;;;5051641;28;20191;-87
2024/03/30 03:18:25;;;;;;;97.50;13.43;;;;;;;;;;5040114;28;20659;-87
2024/03/30 03:21:29;;;;;;;105.87;13.13;;;;;;;;;;5051164;28;20655;-87
2024/03/30 03:24:33;;;;;;;75.53;11.77;;;;;;;;;;5051175;28;20214;-87
2024/03/30 03:27:37;;;;;;;96.73;12.10;;;;;;;;;;5062247;28;20548;-87
2024/03/30 03:30:43;;;;;;;82.27;11.40;;;;;;;;;;5039483;28;20798;-87
2024/03/30 03:33:50;;;;;;;89.20;11.63;;;;;;;;;;5062469;28;20195;-87
2024/03/30 03:36:55;;;;;;;85.07;10.67;;;;;;;;;;5074391;28;20592;-87
2024/03/30 03:39:59;;;;;;;85.30;11.70;;;;;;;;;;5051209;28;20191;-87
2024/03/30 03:43:04;;;;;;;86.07;10.23;;;;;;;;;;5051040;28;20560;-88
2024/03/30 03:46:08;;;;;;;84.40;11.30;;;;;;;;;;5050659;28;20229;-87
2024/03/30 03:49:14;;;;;;;75.93;10.03;;;;;;;;;;5050538;28;20191;-87
2024/03/30 03:52:18;;;;;;;84.83;11.70;;;;;;;;;;5039189;28;20666;-87
2024/03/30 03:55:22;;;;;;;90.80;10.23;;;;;;;;;;5039121;28;20183;-88
2024/03/30 03:58:26;;;;;;;73.57;9.67;;;;;;;;;;5050226;28;20188;-87
2024/03/30 04:01:31;;;;;;;67.03;10.47;;;;;;;;;;5050412;28;20188;-87
2024/03/30 04:04:36;;;;;;;74.50;10.17;;;;;;;;;;5028037;28;20222;-87
2024/03/30 04:07:41;;;;;;;78.93;11.80;;;;;;;;;;5050570;28;20178;-87
2024/03/30 04:10:45;;;;;;;73.07;8.77;;;;;;;;;;5053484;28;20544;-88
2024/03/30 04:13:49;;;;;;;70.40;9.60;;;;;;;;;;5054381;28;20183;-87
2024/03/30 04:16:54;;;;;;;62.57;9.57;;;;;;;;;;5042893;28;20214;-87
2024/03/30 04:19:58;;;;;;;68.23;11.63;;;;;;;;;;5054398;28;20179;-88
2024/03/30 04:23:02;;;;;;;63.13;9.87;;;;;;;;;;5042464;28;20182;-87
2024/03/30 04:26:09;;;;;;;72.33;9.53;;;;;;;;;;5077553;28;20219;-87
2024/03/30 04:29:14;;;;;;;61.27;9.70;;;;;;;;;;5053928;28;20183;-88
2024/03/30 04:32:18;;;;;;;70.43;9.43;;;;;;;;;;5065122;28;20187;-87
2024/03/30 04:35:22;;;;;;;62.90;8.73;;;;;;;;;;5043420;28;20180;-87
2024/03/30 04:38:27;;;;;;;74.83;8.97;;;;;;;;;;5054139;28;20180;-87
2024/03/30 04:41:32;;;;;;;66.53;8.63;;;;;;;;;;5076857;28;20187;-87
2024/03/30 04:44:36;;;;;;;72.47;8.93;;;;;;;;;;5053511;28;20549;-87
2024/03/30 04:47:40;;;;;;;65.70;9.07;;;;;;;;;;5054496;28;20184;-85
2024/03/30 04:50:45;;;;;;;64.10;8.93;;;;;;;;;;5078897;28;20180;-85
2024/03/30 04:53:49;;;;;;;70.70;10.30;;;;;;;;;;5054926;28;20176;-85
2024/03/30 04:56:53;;;;;;;65.67;9.17;;;;;;;;;;5066364;28;20281;-85
2024/03/30 04:59:57;;;;;;;66.67;10.37;;;;;;;;;;5067470;28;20549;-85
2024/03/30 05:03:01;;;;;;;66.93;8.73;;;;;;;;;;5065108;28;20186;-85
2024/03/30 05:06:06;;;;;;;63.23;10.13;;;;;;;;;;5065611;28;20246;-85
2024/03/30 05:09:10;;;;;;;68.07;9.67;;;;;;;;;;5054547;28;20191;-85
2024/03/30 05:12:14;;;;;;;68.67;9.63;;;;;;;;;;5079197;28;20183;-85
2024/03/30 05:15:19;;;;;;;59.83;8.40;;;;;;;;;;5067205;28;20648;-85
2024/03/30 05:18:23;;;;;;;62.27;9.57;;;;;;;;;;5054110;28;20187;-85
2024/03/30 05:21:27;;;;;;;75.20;9.90;;;;;;;;;;5064540;28;20180;-85
2024/03/30 05:24:30;;;;;;;69.33;9.77;;;;;;;;;;5053799;28;20207;-85
2024/03/30 05:27:35;;;;;;;67.77;9.10;;;;;;;;;;5053756;28;20183;-85
2024/03/30 05:30:39;;;;;;;78.03;9.87;;;;;;;;;;5065083;28;20179;-85
2024/03/30 05:33:43;;;;;;;72.87;9.47;;;;;;;;;;5083488;28;20175;-85
2024/03/30 05:36:48;;;;;;;67.17;9.03;;;;;;;;;;5052359;28;20223;-86
2024/03/30 05:39:52;;;;;;;71.13;10.00;;;;;;;;;;5089419;28;20176;-86
2024/03/30 05:42:57;;;;;;;71.70;9.33;;;;;;;;;;5074515;28;20185;-85
2024/03/30 05:46:01;;;;;;;59.27;8.70;;;;;;;;;;5086163;28;20207;-86
2024/03/30 05:49:05;;;;;;;73.40;9.37;;;;;;;;;;5074088;28;20505;-87
2024/03/30 05:52:09;;;;;;;59.90;8.63;;;;;;;;;;5061873;28;20612;-87
2024/03/30 05:55:14;;;;;;;73.20;8.67;;;;;;;;;;5060753;28;20184;-87
2024/03/30 05:58:18;;;;;;;58.30;8.40;;;;;;;;;;5085184;28;20187;-89
2024/03/30 06:01:22;;;;;;;65.13;8.70;;;;;;;;;;5049297;28;20175;-88
2024/03/30 06:04:26;;;;;;;83.90;10.30;;;;;;;;;;5048639;28;20207;-89
2024/03/30 06:07:31;;;;;;;75.97;9.07;;;;;;;;;;5060198;28;20179;-88
2024/03/30 06:10:35;;;;;;;61.23;8.03;;;;;;;;;;5048789;28;20180;-88
2024/03/30 06:13:40;;;;;;;65.40;8.77;;;;;;;;;;5059507;28;20175;-88
2024/03/30 06:16:46;;;;;;;77.57;9.07;;;;;;;;;;5047656;28;20219;-88
2024/03/30 06:19:50;;;;;;;68.03;7.93;;;;;;;;;;5059545;28;20180;-88
2024/03/30 06:22:54;;;;;;;59.90;8.77;;;;;;;;;;5048152;28;20175;-88
2024/03/30 06:25:59;;;;;;;73.83;8.43;;;;;;;;;;5047630;28;20211;-88
2024/03/30 06:29:03;;;;;;;57.70;7.77;;;;;;;;;;5058523;28;20179;-88
2024/03/30 06:32:08;;;;;;;69.90;8.90;;;;;;;;;;5058139;28;20180;-88
2024/03/30 06:35:12;;;;;;;51.53;8.60;;;;;;;;;;5046644;28;20179;-89
2024/03/30 06:38:16;;;;;;;68.20;9.03;;;;;;;;;;5069308;28;20175;-88
2024/03/30 06:44:45;;;;;;;69.47;8.77;;;;;;;;;;5059686;28;20203;-88
2024/03/30 06:47:51;;;;;;;53.77;7.37;;;;;;;;;;5058032;28;20175;-87
2024/03/30 06:50:55;;;;;;;66.50;8.50;;;;;;;;;;5057119;28;20517;-87
2024/03/30 06:53:59;;;;;;;56.37;8.33;;;;;;;;;;5068182;28;20176;-81
2024/03/30 06:57:04;;;;;;;59.57;8.33;;;;;;;;;;5056506;28;20211;-81
2024/03/30 07:00:09;;;;;;;80.33;8.60;;;;;;;;;;5081127;28;20176;-82
2024/03/30 07:03:14;;;;;;;59.87;8.73;;;;;;;;;;5056228;28;20188;-81
2024/03/30 07:06:21;;;;;;;64.03;8.57;;;;;;;;;;5079663;28;20223;-85
2024/03/30 07:09:52;;;;;;;63.50;8.53;;;;;;;;;;5066384;28;20184;-87
2024/03/30 07:13:36;;;;;;;49.27;7.10;;;;;;;;;;5066472;28;20168;-87
2024/03/30 07:17:38;;;;;;;51.53;7.50;;;;;;;;;;5034860;28;20219;-87
2024/03/30 07:21:06;;;;;;;60.10;8.23;;;;;;;;;;5069051;28;20176;-85
2024/03/30 07:24:38;;;;;;;61.10;7.70;;;;;;;;;;5065423;28;20203;-87
2024/03/30 09:34:20;;;;;;;45.23;6.87;;;;;;;;;;5080062;28;20204;-85
2024/03/30 09:37:24;;;;;;;55.90;7.07;;;;;;;;;;5066091;28;20244;-85
2024/03/30 09:40:29;;;;;;;55.77;6.77;;;;;;;;;;5067451;28;20554;-85
2024/03/30 09:43:35;;;;;;;50.67;6.03;;;;;;;;;;5079003;28;20183;-85
2024/03/30 09:46:41;;;;;;;54.10;7.17;;;;;;;;;;5078805;28;20209;-85
2024/03/30 09:50:07;;;;;;;41.63;6.13;;;;;;;;;;5055287;28;20177;-88
2024/03/30 09:53:23;;;;;;;52.95;6.13;;;;;;;;;;5055565;28;20511;-87
2024/03/30 10:03:00;;;;;;;48.38;5.88;;;;;;;;;;5064271;28;20185;-88
2024/03/30 10:06:55;;;;;;;44.60;6.80;;;;;;;;;;5076359;28;20580;-83
2024/03/30 10:10:07;;;;;;;43.90;5.93;;;;;;;;;;5066510;28;20181;-83
2024/03/30 10:13:20;;;;;;;56.25;6.72;;;;;;;;;;5068171;28;20190;-84
2024/03/30 10:16:24;;;;;;;58.72;7.15;;;;;;;;;;5079291;28;20211;-84
2024/03/30 10:19:31;;;;;;;55.05;7.30;;;;;;;;;;5078524;28;20181;-85
2024/03/30 10:22:35;;;;;;;76.28;7.72;;;;;;;;;;5064608;28;20185;-85
2024/03/30 10:25:51;;;;;;;58.38;6.65;;;;;;;;;;5052907;28;20229;-84
2024/03/30 10:28:55;;;;;;;44.20;6.68;;;;;;;;;;5065930;28;20512;-85
2024/03/30 10:32:05;;;;;;;53.53;7.78;;;;;;;;;;5077509;28;20194;-85
2024/03/30 10:35:10;;;;;;;59.45;7.13;;;;;;;;;;5064664;28;20171;-84
2024/03/30 10:38:15;;;;;;;47.35;7.40;;;;;;;;;;5064762;28;20186;-85
2024/03/30 10:41:19;;;;;;;62.95;6.72;;;;;;;;;;5064375;28;20530;-85
2024/03/30 10:44:25;;;;;;;50.85;6.88;;;;;;;;;;5064719;28;20547;-85
2024/03/30 10:47:29;;;;;;;50.03;6.78;;;;;;;;;;5053452;28;20688;-85
2024/03/30 10:50:34;;;;;;;54.50;7.60;;;;;;;;;;5052774;28;20176;-85
2024/03/30 10:53:39;;;;;;;56.20;7.25;;;;;;;;;;5077101;28;20185;-85
2024/03/30 10:56:52;;;;;;;47.17;5.50;;;;;;;;;;5077268;28;20212;-85
2024/03/30 11:00:01;;;;;;;60.95;6.10;;;;;;;;;;5063895;28;20517;-85
2024/03/30 11:03:07;;;;;;;47.85;6.15;;;;;;;;;;5063636;28;20634;-85
2024/03/30 11:06:11;;;;;;;51.55;6.55;;;;;;;;;;5075448;28;20225;-85
2024/03/30 11:09:16;;;;;;;58.35;6.70;;;;;;;;;;5052352;28;20187;-85
2024/03/30 11:12:22;;;;;;;56.95;6.47;;;;;;;;;;5052258;28;20186;-85
2024/03/30 11:15:32;;;;;;;55.35;6.22;;;;;;;;;;5075794;28;20216;-85
2024/03/30 11:18:43;;;;;;;57.13;6.15;;;;;;;;;;5062726;28;20178;-85
2024/03/30 11:22:07;;;;;;;51.58;6.22;;;;;;;;;;5075898;28;20186;-85
2024/03/30 11:25:16;;;;;;;46.70;5.65;;;;;;;;;;5063291;28;20206;-84
2024/03/30 11:28:35;;;;;;;63.38;6.07;;;;;;;;;;5051622;28;20182;-85
2024/03/30 11:32:07;;;;;;;45.10;6.55;;;;;;;;;;5074968;28;20530;-86
2024/03/30 11:35:17;;;;;;;34.10;5.47;;;;;;;;;;5062811;28;20177;-86
2024/03/30 11:38:31;;;;;;;57.90;6.18;;;;;;;;;;5081851;28;20637;-81
2024/03/30 11:41:40;;;;;;;42.72;5.85;;;;;;;;;;5075938;28;20173;-82
2024/03/30 11:44:46;;;;;;;38.83;5.53;;;;;;;;;;5076647;28;20184;-82
2024/03/30 11:47:54;;;;;;;48.50;6.18;;;;;;;;;;5076919;28;20537;-82
2024/03/30 11:50:58;;;;;;;47.22;5.28;;;;;;;;;;5064548;28;20181;-82
2024/03/30 11:54:26;;;;;;;41.08;6.07;;;;;;;;;;5076676;28;20185;-82
2024/03/30 11:57:29;;;;;;;44.78;5.88;;;;;;;;;;5051885;28;20222;-82
2024/03/30 12:00:50;;;;;;;41.80;6.15;;;;;;;;;;5062982;28;20186;-82
2024/03/30 12:03:57;;;;;;;48.92;5.70;;;;;;;;;;5076610;28;20176;-82
2024/03/30 12:07:01;;;;;;;56.50;6.05;;;;;;;;;;5063721;28;20235;-83
2024/03/30 12:10:08;;;;;;;51.13;6.03;;;;;;;;;;5076169;28;20527;-82
2024/03/30 12:13:13;;;;;;;45.30;6.50;;;;;;;;;;5076236;28;20178;-82
2024/03/30 12:16:17;;;;;;;45.60;6.35;;;;;;;;;;5076697;28;20209;-82
2024/03/30 12:19:21;;;;;;;56.58;7.10;;;;;;;;;;5063441;28;20176;-85
2024/03/30 12:22:26;;;;;;;48.38;7.13;;;;;;;;;;5063157;28;20178;-85
2024/03/30 12:25:31;;;;;;;42.35;6.28;;;;;;;;;;5075847;28;20571;-85
2024/03/30 12:28:35;;;;;;;46.60;6.32;;;;;;;;;;5055337;28;20182;-85
2024/03/30 12:31:39;;;;;;;53.67;7.43;;;;;;;;;;5068104;28;20178;-84
2024/03/30 12:34:43;;;;;;;78.78;14.30;;;;;;;;;;5080344;28;20528;-84
2024/03/30 12:37:48;;;;;;;51.03;5.47;;;;;;;;;;5068231;28;20182;-83
2024/03/30 12:40:52;;;;;;;47.42;6.13;;;;;;;;;;5080293;28;20528;-84
2024/03/30 12:44:03;;;;;;;47.35;6.32;;;;;;;;;;5080579;28;20183;-85
2024/03/30 12:47:08;;;;;;;51.13;5.65;;;;;;;;;;5078548;28;20221;-85
2024/03/30 12:50:12;;;;;;;51.15;6.38;;;;;;;;;;5056274;28;20178;-86
2024/03/30 12:53:16;;;;;;;42.33;5.85;;;;;;;;;;5078370;28;20636;-85
2024/03/30 12:56:25;;;;;;;45.03;5.57;;;;;;;;;;5078631;28;20222;-85
2024/03/30 12:59:29;;;;;;;46.13;5.75;;;;;;;;;;5078952;28;20522;-85
2024/03/30 13:02:33;;;;;;;47.15;5.72;;;;;;;;;;5066776;28;20187;-86
2024/03/30 13:05:38;;;;;;;42.28;6.00;;;;;;;;;;5054702;28;20223;-87
2024/03/30 13:08:50;;;;;;;49.85;5.47;;;;;;;;;;5065428;28;20629;-87
2024/03/30 13:21:20;;;;;;;48.38;6.10;;;;;;;;;;5077367;28;20178;-89
2024/03/30 13:24:51;;;;;;;32.60;5.43;;;;;;;;;;5076961;28;20174;-89
2024/03/30 13:28:29;;;;;;;49.10;6.00;;;;;;;;;;5043650;28;20183;-89
2024/03/30 13:31:38;;;;;;;40.35;5.22;;;;;;;;;;5055265;28;20183;-89
2024/03/30 13:34:47;;;;;;;39.35;6.15;;;;;;;;;;5066097;28;20182;-89
2024/03/30 13:37:52;;;;;;;51.42;6.15;;;;;;;;;;5054198;28;20179;-89
2024/03/30 13:40:57;;;;;;;50.13;5.95;;;;;;;;;;5066813;28;20180;-89
2024/03/30 13:44:01;;;;;;;62.13;6.38;;;;;;;;;;5077291;28;20180;-89
2024/03/30 13:47:06;;;;;;;33.15;5.30;;;;;;;;;;5053905;28;20222;-89
2024/03/30 13:50:10;;;;;;;41.72;8.20;;;;;;;;;;5065364;28;20179;-89
2024/03/30 13:53:15;;;;;;;43.25;6.05;;;;;;;;;;5065897;28;20183;-89
2024/03/30 13:56:18;;;;;;;51.97;5.93;;;;;;;;;;5065092;28;20706;-89
2024/03/30 13:59:22;;;;;;;38.22;5.43;;;;;;;;;;5053588;28;20178;-89
2024/03/30 14:02:28;;;;;;;43.30;5.53;;;;;;;;;;5053064;28;20519;-89
2024/03/30 14:05:32;;;;;;;44.13;6.20;;;;;;;;;;5052737;28;20239;-89
2024/03/30 14:08:36;;;;;;;40.90;5.65;;;;;;;;;;5042657;28;20186;-89
2024/03/30 14:11:41;;;;;;;41.55;5.45;;;;;;;;;;5065383;28;20183;-89
2024/03/30 14:14:45;;;;;;;48.40;5.47;;;;;;;;;;5053862;28;20187;-89
2024/03/30 14:17:49;;;;;;;46.63;5.95;;;;;;;;;;5064661;28;20668;-89
2024/03/30 14:20:53;;;;;;;49.30;6.07;;;;;;;;;;5079421;28;20192;-87
2024/03/30 14:23:58;;;;;;;42.63;5.20;;;;;;;;;;5067814;28;20179;-88
2024/03/30 14:27:02;;;;;;;53.72;5.47;;;;;;;;;;5067282;28;20220;-87
2024/03/30 14:30:07;;;;;;;46.75;5.78;;;;;;;;;;5045093;28;20179;-87
2024/03/30 14:33:11;;;;;;;40.00;5.90;;;;;;;;;;5079595;28;20181;-87
2024/03/30 14:36:25;;;;;;;41.67;5.75;;;;;;;;;;5056602;28;20226;-87
2024/03/30 14:39:29;;;;;;;47.83;6.05;;;;;;;;;;5046773;28;20180;-87
2024/03/30 14:42:33;;;;;;;46.35;6.55;;;;;;;;;;5058055;28;20181;-87
2024/03/30 14:45:38;;;;;;;56.15;7.07;;;;;;;;;;5067861;28;20222;-87
2024/03/30 14:48:42;;;;;;;41.55;5.80;;;;;;;;;;5067366;28;20632;-87
2024/03/30 14:51:46;;;;;;;62.47;7.45;;;;;;;;;;5045947;28;20185;-87
2024/03/30 14:54:50;;;;;;;40.92;5.78;;;;;;;;;;5067295;28;20182;-87
2024/03/30 14:57:55;;;;;;;37.90;5.38;;;;;;;;;;5057440;28;20208;-87
2024/03/30 15:01:00;;;;;;;44.17;6.20;;;;;;;;;;5044295;28;20177;-87
2024/03/30 15:04:05;;;;;;;41.95;6.30;;;;;;;;;;5068202;28;20185;-87
2024/03/30 15:07:09;;;;;;;50.42;7.18;;;;;;;;;;5067116;28;20217;-87
2024/03/30 15:10:13;;;;;;;57.78;6.82;;;;;;;;;;5044593;28;20180;-87
2024/03/30 15:13:17;;;;;;;63.60;6.75;;;;;;;;;;5069385;28;20184;-87
2024/03/30 15:16:22;;;;;;;57.50;7.50;;;;;;;;;;5067028;28;20228;-87
2024/03/30 15:19:26;;;;;;;64.47;7.38;;;;;;;;;;5056722;28;20185;-87
2024/03/30 15:22:30;;;;;;;66.80;7.47;;;;;;;;;;5055541;28;20176;-86
2024/03/30 15:25:34;;;;;;;68.30;8.70;;;;;;;;;;5066886;28;20220;-87
2024/03/30 15:28:40;;;;;;;72.30;7.57;;;;;;;;;;5064257;28;20180;-85
2024/03/30 15:35:07;;;;;;;65.73;8.20;;;;;;;;;;5054430;28;20186;-80
2024/03/30 15:38:11;;;;;;;48.60;7.00;;;;;;;;;;5036991;28;24364;-80
2024/03/30 15:41:15;;;;;;;57.50;7.70;;;;;;;;;;5038451;28;20183;-80
2024/03/30 15:44:19;;;;;;;60.30;7.47;;;;;;;;;;5039204;28;20191;-80
2024/03/30 15:47:24;;;;;;;57.17;7.10;;;;;;;;;;5038532;28;20214;-80
2024/03/30 15:50:29;;;;;;;58.30;7.20;;;;;;;;;;5037909;28;20182;-80
2024/03/30 15:53:34;;;;;;;50.23;6.53;;;;;;;;;;5038009;28;20189;-80
2024/03/30 15:56:39;;;;;;;61.10;7.13;;;;;;;;;;5037572;28;20224;-80
2024/03/30 15:59:53;;;;;;;60.03;6.57;;;;;;;;;;5036648;28;20188;-84
2024/03/30 16:02:57;;;;;;;58.00;7.23;;;;;;;;;;5025320;28;20179;-79
2024/03/30 16:06:05;;;;;;;48.10;7.83;;;;;;;;;;5037799;28;20212;-84
2024/03/30 16:09:39;;;;;;;51.70;6.63;;;;;;;;;;5025954;28;20180;-85
2024/03/30 16:17:21;;;;;;;48.27;6.60;;;;;;;;;;5025678;28;20224;-85
2024/03/30 16:20:25;;;;;;;54.37;7.27;;;;;;;;;;5004167;28;20181;-84
2024/03/30 16:23:30;;;;;;;46.87;7.13;;;;;;;;;;5025162;28;20184;-86
2024/03/30 16:26:34;;;;;;;52.10;6.27;;;;;;;;;;5013788;28;20208;-86
2024/03/30 16:29:38;;;;;;;48.03;6.10;;;;;;;;;;5025098;28;20645;-86
2024/03/30 16:32:42;;;;;;;41.20;5.87;;;;;;;;;;5023834;28;20176;-86
2024/03/30 16:35:47;;;;;;;56.83;7.37;;;;;;;;;;5024833;28;20228;-86
2024/03/30 16:38:51;;;;;;;40.07;5.97;;;;;;;;;;5024972;28;20177;-87
2024/03/30 16:41:55;;;;;;;49.33;7.13;;;;;;;;;;5013884;28;20185;-87
2024/03/30 16:44:59;;;;;;;48.03;7.07;;;;;;;;;;5014211;28;20181;-87
2024/03/30 16:48:04;;;;;;;42.83;6.53;;;;;;;;;;5013703;28;20181;-87
2024/03/30 16:51:08;;;;;;;55.07;6.47;;;;;;;;;;5014562;28;20181;-87
2024/03/30 16:54:13;;;;;;;48.23;6.33;;;;;;;;;;5014184;28;20189;-86
2024/03/30 16:57:17;;;;;;;48.17;6.83;;;;;;;;;;5014124;28;20224;-87
2024/03/30 17:00:21;;;;;;;40.40;6.00;;;;;;;;;;5025357;28;20522;-87
2024/03/30 17:03:26;;;;;;;46.20;6.27;;;;;;;;;;5025891;28;20251;-87
2024/03/30 17:06:31;;;;;;;44.33;6.47;;;;;;;;;;5014563;28;20216;-87
2024/03/30 17:09:36;;;;;;;53.33;6.60;;;;;;;;;;5014124;28;20185;-87
2024/03/30 17:12:41;;;;;;;52.10;6.97;;;;;;;;;;5013414;28;20181;-87
2024/03/30 17:15:45;;;;;;;48.87;6.07;;;;;;;;;;5025220;28;20217;-87
2024/03/30 17:19:16;;;;;;;55.00;6.83;;;;;;;;;;5014631;28;20173;-87
2024/03/30 17:22:20;;;;;;;53.53;6.67;;;;;;;;;;5026064;28;20177;-87
2024/03/30 17:25:26;;;;;;;42.20;6.13;;;;;;;;;;5025602;28;20185;-87
2024/03/30 17:28:30;;;;;;;55.77;6.57;;;;;;;;;;5014714;28;20181;-87
2024/03/30 17:31:35;;;;;;;50.13;6.80;;;;;;;;;;5036423;28;20185;-87
2024/03/30 17:34:39;;;;;;;53.43;6.10;;;;;;;;;;5024324;28;20177;-87
2024/03/30 17:37:45;;;;;;;69.13;8.43;;;;;;;;;;5013082;28;20204;-87
2024/03/30 17:40:55;;;;;;;66.40;8.07;;;;;;;;;;5013567;28;20629;-87
2024/03/30 17:44:07;;;;;;;48.00;6.73;;;;;;;;;;5035793;28;20185;-87
2024/03/30 17:47:16;;;;;;;56.50;7.00;;;;;;;;;;5012723;28;20213;-87
2024/03/30 17:50:45;;;;;;;63.50;7.40;;;;;;;;;;5024224;28;20181;-87
2024/03/30 17:53:50;;;;;;;51.80;7.77;;;;;;;;;;5024328;28;20173;-87
2024/03/30 17:56:58;;;;;;;43.30;7.63;;;;;;;;;;5024090;28;20558;-87
2024/03/30 18:00:05;;;;;;;50.83;7.17;;;;;;;;;;5013528;28;20181;-87
2024/03/30 18:03:09;;;;;;;58.03;7.53;;;;;;;;;;5013663;28;20181;-87
2024/03/30 18:06:19;;;;;;;67.47;8.03;;;;;;;;;;5024183;28;20220;-87
2024/03/30 18:09:23;;;;;;;59.20;7.07;;;;;;;;;;5013343;28;20622;-87
2024/03/30 18:12:28;;;;;;;74.73;8.27;;;;;;;;;;5012960;28;20185;-87
2024/03/30 18:15:32;;;;;;;62.03;6.90;;;;;;;;;;5035713;28;20216;-87
2024/03/30 18:18:41;;;;;;;62.53;8.37;;;;;;;;;;5024075;28;20209;-87
2024/03/30 18:21:45;;;;;;;52.60;7.97;;;;;;;;;;5025768;28;20185;-86
2024/03/30 18:24:50;;;;;;;56.07;8.37;;;;;;;;;;5024240;28;20638;-90
2024/03/30 18:27:54;;;;;;;60.87;7.80;;;;;;;;;;5034593;28;20181;-80
2024/03/30 18:31:29;;;;;;;58.37;7.73;;;;;;;;;;5036227;28;20177;-89
2024/03/30 20:51:10;;;;;;;44.10;9.47;;;;;;;;;;5041960;28;20215;-87
2024/03/30 20:54:23;;;;;;;46.43;9.50;;;;;;;;;;5021487;28;20216;-87
2024/03/30 20:58:18;;;;;;;41.33;8.60;;;;;;;;;;5022549;28;20240;-87
2024/03/30 21:03:01;;;;;;;42.60;8.40;;;;;;;;;;5036726;28;20181;-88
2024/03/30 21:06:59;;;;;;;44.63;7.97;;;;;;;;;;5034886;28;20226;-87
2024/03/30 21:10:04;;;;;;;51.57;8.70;;;;;;;;;;5022958;28;20656;-86
2024/03/30 21:13:08;;;;;;;41.53;8.60;;;;;;;;;;5023954;28;20626;-87
2024/03/30 21:16:13;;;;;;;44.93;8.30;;;;;;;;;;5025041;28;20212;-87
2024/03/30 21:19:17;;;;;;;40.23;8.30;;;;;;;;;;5023029;28;20208;-88
2024/03/30 21:22:21;;;;;;;43.40;8.00;;;;;;;;;;5021736;28;20181;-87
2024/03/30 21:25:26;;;;;;;37.87;7.37;;;;;;;;;;5021387;28;20185;-87
2024/03/30 21:28:30;;;;;;;37.13;7.03;;;;;;;;;;5026888;28;20181;-86
2024/03/30 21:31:34;;;;;;;49.70;8.17;;;;;;;;;;5009646;28;20185;-87
2024/03/30 21:34:38;;;;;;;39.70;7.37;;;;;;;;;;5020089;28;20185;-87
2024/03/30 21:37:43;;;;;;;31.67;6.73;;;;;;;;;;5020022;28;20177;-87
2024/03/30 21:40:47;;;;;;;37.70;6.33;;;;;;;;;;5019584;28;20181;-87
2024/03/30 21:43:51;;;;;;;50.47;7.07;;;;;;;;;;5019795;28;20488;-87
2024/03/30 21:46:56;;;;;;;46.10;7.43;;;;;;;;;;5019214;28;20219;-87
2024/03/30 21:50:00;;;;;;;34.37;7.33;;;;;;;;;;5019142;28;20181;-87
2024/03/30 21:53:06;;;;;;;36.60;6.93;;;;;;;;;;5018595;28;20180;-87
2024/03/30 21:56:10;;;;;;;36.53;7.07;;;;;;;;;;5007050;28;20563;-87
2024/03/30 21:59:14;;;;;;;38.43;7.10;;;;;;;;;;5006915;28;20213;-87
2024/03/30 22:02:18;;;;;;;34.53;5.90;;;;;;;;;;5007286;28;20181;-87
2024/03/30 22:05:22;;;;;;;47.50;6.80;;;;;;;;;;5017826;28;20181;-87
2024/03/30 22:08:26;;;;;;;36.57;6.57;;;;;;;;;;5028201;28;20176;-87
2024/03/30 22:11:30;;;;;;;47.67;6.87;;;;;;;;;;5005323;28;20177;-87
2024/03/30 22:14:35;;;;;;;43.87;5.83;;;;;;;;;;5016328;28;20185;-87
2024/03/30 22:17:39;;;;;;;46.80;6.00;;;;;;;;;;5005346;28;20181;-87
2024/03/30 22:20:43;;;;;;;49.20;5.53;;;;;;;;;;5005691;28;20181;-87
2024/03/30 22:23:48;;;;;;;33.57;5.87;;;;;;;;;;5005914;28;20181;-87
2024/03/30 22:26:52;;;;;;;32.60;5.50;;;;;;;;;;5016207;28;20562;-87
2024/03/30 22:29:56;;;;;;;38.47;5.83;;;;;;;;;;5016211;28;20184;-87
2024/03/30 22:33:05;;;;;;;39.37;5.20;;;;;;;;;;5006327;28;20188;-87
2024/03/30 22:36:10;;;;;;;39.00;6.30;;;;;;;;;;5005697;28;20216;-87
2024/03/30 22:39:14;;;;;;;35.43;5.87;;;;;;;;;;5016909;28;20543;-87
2024/03/30 22:42:18;;;;;;;38.57;6.03;;;;;;;;;;5016281;28;20189;-87
2024/03/30 22:45:23;;;;;;;42.30;6.00;;;;;;;;;;5015301;28;20198;-87
2024/03/30 22:48:27;;;;;;;44.70;6.23;;;;;;;;;;5014938;28;20181;-87
2024/03/30 22:51:31;;;;;;;28.30;5.40;;;;;;;;;;5014738;28;20188;-87
2024/03/30 22:54:38;;;;;;;31.53;5.50;;;;;;;;;;5014659;28;20188;-87
2024/03/30 22:57:43;;;;;;;31.67;5.73;;;;;;;;;;5003636;28;20181;-87
2024/03/30 23:00:49;;;;;;;41.93;5.63;;;;;;;;;;5003564;28;20197;-87
2024/03/30 23:03:53;;;;;;;43.37;6.73;;;;;;;;;;5014677;28;20177;-87
2024/03/30 23:06:57;;;;;;;27.63;6.10;;;;;;;;;;5014698;28;20212;-87
2024/03/30 23:10:03;;;;;;;33.60;5.37;;;;;;;;;;5003464;28;20181;-87
2024/03/30 23:13:07;;;;;;;27.33;5.37;;;;;;;;;;5002689;28;20189;-87
2024/03/30 23:16:11;;;;;;;35.30;4.97;;;;;;;;;;5013850;28;20216;-87
2024/03/30 23:19:15;;;;;;;29.00;5.07;;;;;;;;;;5016508;28;20205;-87